createdAt,value
2017-04-11T00:00:34.383Z,15.14
2017-04-11T00:01:34.986Z,15.15
2017-04-11T00:02:35.590Z,15.11
2017-04-11T00:03:36.188Z,15.15
2017-04-11T00:04:36.794Z,15.09
2017-04-11T00:05:37.399Z,15.18
2017-04-11T00:06:37.996Z,15.11
2017-04-11T00:07:38.598Z,15.14
2017-04-11T00:08:39.199Z,15.18
2017-04-11T00:09:39.813Z,15.18
2017-04-11T00:10:40.414Z,15.10
2017-04-11T00:11:41.020Z,15.14
2017-04-11T00:12:41.623Z,15.17
2017-04-11T00:13:42.220Z,15.14
2017-04-11T00:14:42.821Z,15.14
2017-04-11T00:15:43.443Z,15.25
2017-04-11T00:16:44.045Z,15.25
2017-04-11T00:17:44.643Z,15.22
2017-04-11T00:18:45.243Z,15.22
2017-04-11T00:19:45.845Z,15.31
2017-04-11T00:20:46.445Z,15.40
2017-04-11T00:21:47.046Z,15.44
2017-04-11T00:22:47.647Z,15.46
2017-04-11T00:23:48.247Z,15.43
2017-04-11T00:24:48.848Z,15.49
2017-04-11T00:25:49.449Z,15.44
2017-04-11T00:26:50.049Z,15.47
2017-04-11T00:27:50.648Z,15.49
2017-04-11T00:28:51.247Z,15.37
2017-04-11T00:29:51.848Z,15.39
2017-04-11T00:30:52.449Z,15.44
2017-04-11T00:31:53.069Z,15.33
2017-04-11T00:32:53.668Z,15.40
2017-04-11T00:33:54.269Z,15.43
2017-04-11T00:34:54.875Z,15.37
2017-04-11T00:35:55.472Z,15.39
2017-04-11T00:36:56.072Z,15.36
2017-04-11T00:37:56.673Z,15.43
2017-04-11T00:38:57.272Z,15.35
2017-04-11T00:39:57.875Z,15.46
2017-04-11T00:40:58.476Z,15.47
2017-04-11T00:41:59.078Z,15.52
2017-04-11T00:42:59.692Z,15.51
2017-04-11T00:44:00.290Z,15.55
2017-04-11T00:45:00.891Z,15.58
2017-04-11T00:46:01.498Z,15.68
2017-04-11T00:47:02.101Z,15.68
2017-04-11T00:48:02.723Z,15.77
2017-04-11T00:49:03.325Z,15.76
2017-04-11T00:50:03.923Z,15.76
2017-04-11T00:51:04.524Z,15.80
2017-04-11T00:52:05.125Z,15.86
2017-04-11T00:53:05.726Z,15.92
2017-04-11T00:54:06.324Z,15.91
2017-04-11T00:55:06.927Z,15.92
2017-04-11T00:56:07.526Z,15.98
2017-04-11T00:57:08.132Z,15.82
2017-04-11T00:58:08.731Z,15.80
2017-04-11T00:59:09.330Z,15.76
2017-04-11T01:00:09.948Z,15.73
2017-04-11T01:01:10.552Z,15.72
2017-04-11T01:02:11.168Z,15.67
2017-04-11T01:03:11.769Z,15.64
2017-04-11T01:04:12.369Z,15.58
2017-04-11T01:05:12.973Z,15.61
2017-04-11T01:06:13.568Z,15.51
2017-04-11T01:07:14.185Z,15.52
2017-04-11T01:08:14.784Z,15.52
2017-04-11T01:09:15.391Z,15.52
2017-04-11T01:10:16.006Z,15.37
2017-04-11T01:11:16.606Z,15.46
2017-04-11T01:12:17.206Z,15.35
2017-04-11T01:13:17.812Z,15.39
2017-04-11T01:14:18.416Z,15.44
2017-04-11T01:15:19.017Z,15.37
2017-04-11T01:16:19.616Z,15.28
2017-04-11T01:17:20.216Z,15.29
2017-04-11T01:18:20.816Z,15.31
2017-04-11T01:19:21.416Z,15.33
2017-04-11T01:20:22.015Z,15.33
2017-04-11T01:21:22.616Z,15.31
2017-04-11T01:22:23.222Z,15.24
2017-04-11T01:23:23.825Z,15.21
2017-04-11T01:24:24.422Z,15.29
2017-04-11T01:25:25.037Z,15.19
2017-04-11T01:26:25.644Z,15.21
2017-04-11T01:27:26.241Z,15.19
2017-04-11T01:28:26.842Z,15.21
2017-04-11T01:29:27.446Z,15.22
2017-04-11T01:30:28.042Z,15.15
2017-04-11T01:31:28.647Z,15.17
2017-04-11T01:32:29.249Z,15.11
2017-04-11T01:33:29.846Z,15.03
2017-04-11T01:34:30.451Z,14.91
2017-04-11T01:35:31.055Z,15.02
2017-04-11T01:36:31.657Z,14.89
2017-04-11T01:37:32.256Z,14.89
2017-04-11T01:38:32.854Z,15.02
2017-04-11T01:39:33.469Z,14.97
2017-04-11T01:40:34.072Z,15.06
2017-04-11T01:41:34.671Z,15.02
2017-04-11T01:42:35.270Z,15.04
2017-04-11T01:43:35.876Z,15.06
2017-04-11T01:44:36.471Z,15.02
2017-04-11T01:45:37.091Z,15.00
2017-04-11T01:46:37.690Z,15.04
2017-04-11T01:47:38.289Z,14.97
2017-04-11T01:48:38.890Z,14.99
2017-04-11T01:49:39.495Z,14.92
2017-04-11T01:50:40.094Z,14.85
2017-04-11T01:51:40.699Z,14.79
2017-04-11T01:52:41.296Z,14.81
2017-04-11T01:53:41.903Z,14.79
2017-04-11T01:54:42.496Z,14.79
2017-04-11T01:55:43.096Z,14.82
2017-04-11T01:56:43.711Z,14.82
2017-04-11T01:57:44.310Z,14.81
2017-04-11T01:58:44.918Z,14.79
2017-04-11T01:59:45.520Z,14.79
2017-04-11T02:00:46.118Z,14.68
2017-04-11T02:01:46.716Z,14.68
2017-04-11T02:02:47.323Z,14.70
2017-04-11T02:05:04.012Z,14.68
2017-04-11T02:06:04.603Z,14.68
2017-04-11T02:07:05.202Z,14.70
2017-04-11T02:08:05.803Z,14.63
2017-04-11T02:09:06.403Z,14.68
2017-04-11T02:10:07.253Z,14.68
2017-04-11T02:11:07.854Z,14.63
2017-04-11T02:12:08.458Z,14.77
2017-04-11T02:13:09.073Z,14.79
2017-04-11T02:14:09.680Z,14.82
2017-04-11T02:15:10.277Z,14.78
2017-04-11T02:16:10.877Z,14.68
2017-04-11T02:17:11.476Z,14.72
2017-04-11T02:18:12.077Z,14.70
2017-04-11T02:19:12.676Z,14.66
2017-04-11T02:20:13.295Z,14.58
2017-04-11T02:21:13.889Z,14.53
2017-04-11T02:22:14.491Z,14.48
2017-04-11T02:23:15.091Z,14.47
2017-04-11T02:24:15.690Z,14.41
2017-04-11T02:25:16.291Z,14.50
2017-04-11T02:26:16.897Z,14.45
2017-04-11T02:27:17.494Z,14.47
2017-04-11T02:28:18.092Z,14.48
2017-04-11T02:29:18.700Z,14.51
2017-04-11T02:30:19.319Z,14.50
2017-04-11T02:31:19.915Z,14.48
2017-04-11T02:32:20.514Z,14.44
2017-04-11T02:33:21.131Z,14.41
2017-04-11T02:34:21.729Z,14.45
2017-04-11T02:35:22.336Z,14.47
2017-04-11T02:36:22.934Z,14.45
2017-04-11T02:37:23.533Z,14.44
2017-04-11T02:38:24.136Z,14.51
2017-04-11T02:39:24.741Z,14.58
2017-04-11T02:40:25.338Z,14.55
2017-04-11T02:41:25.936Z,14.63
2017-04-11T02:42:26.541Z,14.70
2017-04-11T02:43:27.158Z,14.79
2017-04-11T02:44:27.757Z,14.82
2017-04-11T02:45:28.356Z,14.78
2017-04-11T02:46:28.957Z,14.84
2017-04-11T02:47:29.555Z,14.88
2017-04-11T02:48:30.174Z,14.81
2017-04-11T02:49:30.772Z,14.89
2017-04-11T02:50:31.388Z,14.92
2017-04-11T02:51:31.987Z,15.00
2017-04-11T02:52:32.587Z,14.96
2017-04-11T02:53:33.186Z,14.91
2017-04-11T02:54:33.786Z,15.02
2017-04-11T02:55:34.390Z,15.06
2017-04-11T02:56:34.987Z,15.04
2017-04-11T02:57:35.588Z,15.00
2017-04-11T02:58:36.204Z,15.06
2017-04-11T02:59:36.807Z,14.99
2017-04-11T03:00:37.405Z,15.04
2017-04-11T03:01:38.004Z,15.07
2017-04-11T03:02:38.608Z,15.02
2017-04-11T03:03:39.219Z,14.96
2017-04-11T03:04:39.823Z,15.02
2017-04-11T03:05:40.422Z,14.88
2017-04-11T03:06:41.023Z,14.89
2017-04-11T03:07:41.629Z,14.79
2017-04-11T03:08:42.226Z,14.79
2017-04-11T03:09:42.831Z,14.66
2017-04-11T03:10:43.429Z,14.70
2017-04-11T03:11:44.033Z,14.69
2017-04-11T03:12:44.630Z,14.66
2017-04-11T03:13:45.229Z,14.59
2017-04-11T03:14:45.829Z,14.45
2017-04-11T03:15:46.428Z,14.50
2017-04-11T03:16:47.027Z,14.40
2017-04-11T03:17:47.629Z,14.43
2017-04-11T03:18:48.233Z,14.30
2017-04-11T03:19:48.836Z,14.32
2017-04-11T03:20:49.431Z,14.17
2017-04-11T03:21:50.052Z,14.15
2017-04-11T03:22:50.648Z,14.20
2017-04-11T03:23:51.252Z,14.22
2017-04-11T03:24:51.854Z,14.18
2017-04-11T03:25:52.450Z,14.18
2017-04-11T03:26:53.050Z,14.25
2017-04-11T03:27:53.666Z,14.12
2017-04-11T03:28:54.264Z,14.10
2017-04-11T03:29:54.863Z,14.14
2017-04-11T03:30:55.464Z,14.12
2017-04-11T03:31:56.069Z,14.03
2017-04-11T03:32:56.670Z,14.05
2017-04-11T03:33:57.266Z,14.10
2017-04-11T03:34:57.867Z,14.10
2017-04-11T03:35:58.466Z,14.11
2017-04-11T03:36:59.081Z,14.12
2017-04-11T03:37:59.680Z,14.14
2017-04-11T03:39:00.285Z,14.12
2017-04-11T03:40:00.884Z,14.18
2017-04-11T03:41:01.482Z,14.10
2017-04-11T03:42:02.081Z,14.12
2017-04-11T03:43:02.681Z,14.11
2017-04-11T03:44:03.297Z,14.11
2017-04-11T03:45:03.895Z,14.07
2017-04-11T03:46:04.500Z,14.15
2017-04-11T03:47:05.105Z,14.11
2017-04-11T03:48:05.717Z,14.12
2017-04-11T03:49:06.316Z,14.00
2017-04-11T03:50:06.942Z,14.04
2017-04-11T03:51:07.516Z,14.00
2017-04-11T03:52:08.113Z,13.95
2017-04-11T03:53:08.714Z,13.95
2017-04-11T03:54:09.313Z,13.89
2017-04-11T03:55:09.919Z,13.86
2017-04-11T03:56:10.515Z,13.81
2017-04-11T03:57:11.113Z,13.78
2017-04-11T03:58:11.717Z,13.86
2017-04-11T03:59:12.313Z,13.78
2017-04-11T04:00:12.919Z,13.81
2017-04-11T04:01:13.516Z,13.75
2017-04-11T04:02:14.117Z,13.79
2017-04-11T04:03:14.715Z,13.75
2017-04-11T04:04:15.313Z,13.71
2017-04-11T04:05:15.911Z,13.68
2017-04-11T04:06:16.511Z,13.57
2017-04-11T04:07:17.109Z,13.60
2017-04-11T04:08:17.713Z,13.57
2017-04-11T04:09:18.310Z,13.54
2017-04-11T04:10:18.909Z,13.60
2017-04-11T04:11:19.507Z,13.59
2017-04-11T04:12:20.109Z,13.56
2017-04-11T04:13:20.712Z,13.63
2017-04-11T04:14:21.314Z,13.60
2017-04-11T04:15:21.916Z,13.63
2017-04-11T04:16:22.512Z,13.59
2017-04-11T04:17:23.111Z,13.60
2017-04-11T04:18:23.710Z,13.54
2017-04-11T04:19:24.309Z,13.62
2017-04-11T04:20:24.906Z,13.54
2017-04-11T04:21:25.506Z,13.60
2017-04-11T04:22:26.104Z,13.50
2017-04-11T04:23:26.708Z,13.57
2017-04-11T04:24:27.311Z,13.52
2017-04-11T04:25:27.930Z,13.53
2017-04-11T04:26:28.528Z,13.46
2017-04-11T04:27:29.126Z,13.44
2017-04-11T04:28:29.742Z,13.46
2017-04-11T04:29:30.327Z,13.53
2017-04-11T04:30:30.925Z,13.52
2017-04-11T04:31:31.529Z,13.54
2017-04-11T04:32:32.124Z,13.52
2017-04-11T04:33:32.730Z,13.42
2017-04-11T04:34:33.344Z,13.46
2017-04-11T04:35:33.945Z,13.46
2017-04-11T04:36:34.560Z,13.35
2017-04-11T04:38:50.639Z,13.30
2017-04-11T04:39:51.246Z,13.27
2017-04-11T04:40:51.843Z,13.30
2017-04-11T04:41:52.460Z,13.13
2017-04-11T04:42:53.065Z,13.16
2017-04-11T04:43:53.682Z,13.16
2017-04-11T04:44:54.294Z,13.12
2017-04-11T04:45:54.895Z,13.25
2017-04-11T04:46:55.499Z,13.12
2017-04-11T04:47:56.103Z,13.23
2017-04-11T04:48:56.706Z,13.19
2017-04-11T04:49:57.304Z,13.15
2017-04-11T04:50:57.902Z,13.16
2017-04-11T04:51:58.507Z,13.16
2017-04-11T04:52:59.106Z,13.27
2017-04-11T04:53:59.705Z,13.16
2017-04-11T04:55:00.305Z,13.13
2017-04-11T04:56:00.906Z,13.31
2017-04-11T04:57:01.520Z,13.20
2017-04-11T04:58:02.127Z,13.20
2017-04-11T04:59:02.731Z,13.25
2017-04-11T05:00:03.330Z,13.30
2017-04-11T05:01:03.929Z,13.13
2017-04-11T05:02:04.545Z,13.15
2017-04-11T05:03:05.147Z,13.13
2017-04-11T05:04:05.749Z,13.25
2017-04-11T05:05:06.349Z,13.19
2017-04-11T05:06:06.952Z,13.04
2017-04-11T05:07:07.553Z,13.11
2017-04-11T05:08:08.159Z,13.11
2017-04-11T05:09:08.757Z,13.09
2017-04-11T05:10:09.359Z,13.03
2017-04-11T05:11:09.960Z,13.19
2017-04-11T05:12:10.568Z,13.11
2017-04-11T05:13:11.186Z,13.09
2017-04-11T05:14:11.789Z,13.19
2017-04-11T05:15:12.392Z,13.12
2017-04-11T05:16:12.992Z,13.13
2017-04-11T05:17:13.595Z,13.16
2017-04-11T05:18:14.197Z,13.23
2017-04-11T05:19:14.805Z,13.28
2017-04-11T05:20:15.410Z,13.39
2017-04-11T05:21:16.008Z,13.31
2017-04-11T05:22:16.616Z,13.33
2017-04-11T05:23:17.214Z,13.44
2017-04-11T05:24:17.832Z,13.47
2017-04-11T05:25:18.440Z,13.46
2017-04-11T05:26:19.041Z,13.57
2017-04-11T05:27:19.644Z,13.59
2017-04-11T05:28:20.243Z,13.62
2017-04-11T05:29:20.845Z,13.60
2017-04-11T05:30:21.448Z,13.57
2017-04-11T05:31:22.057Z,13.54
2017-04-11T05:32:22.655Z,13.54
2017-04-11T05:33:23.272Z,13.49
2017-04-11T05:34:23.874Z,13.53
2017-04-11T05:35:24.481Z,13.59
2017-04-11T05:36:25.099Z,13.56
2017-04-11T05:37:25.701Z,13.56
2017-04-11T05:38:26.304Z,13.52
2017-04-11T05:39:26.908Z,13.54
2017-04-11T05:40:27.509Z,13.57
2017-04-11T05:41:28.111Z,13.60
2017-04-11T05:42:28.717Z,13.67
2017-04-11T05:43:29.334Z,13.63
2017-04-11T05:44:29.935Z,13.71
2017-04-11T05:45:30.537Z,13.67
2017-04-11T05:46:31.139Z,13.71
2017-04-11T05:47:31.755Z,13.65
2017-04-11T05:48:32.375Z,13.74
2017-04-11T05:49:32.973Z,13.71
2017-04-11T05:50:33.575Z,13.67
2017-04-11T05:51:34.177Z,13.68
2017-04-11T05:52:34.780Z,13.62
2017-04-11T05:53:35.382Z,13.68
2017-04-11T05:54:35.983Z,13.71
2017-04-11T05:55:36.588Z,13.70
2017-04-11T05:56:37.189Z,13.72
2017-04-11T05:57:37.800Z,13.74
2017-04-11T05:58:38.397Z,13.78
2017-04-11T05:59:39.015Z,13.79
2017-04-11T06:00:39.616Z,13.75
2017-04-11T06:01:40.238Z,13.71
2017-04-11T06:02:40.842Z,13.68
2017-04-11T06:03:41.448Z,13.72
2017-04-11T06:04:42.065Z,13.59
2017-04-11T06:05:42.673Z,13.63
2017-04-11T06:06:43.272Z,13.65
2017-04-11T06:07:43.876Z,13.52
2017-04-11T06:08:44.479Z,13.49
2017-04-11T06:09:45.086Z,13.49
2017-04-11T06:10:45.685Z,13.57
2017-04-11T06:11:46.288Z,13.53
2017-04-11T06:12:46.891Z,13.57
2017-04-11T06:13:47.504Z,13.54
2017-04-11T06:14:48.116Z,13.52
2017-04-11T06:15:48.719Z,13.52
2017-04-11T06:16:49.325Z,13.49
2017-04-11T06:17:49.925Z,13.44
2017-04-11T06:18:50.526Z,13.42
2017-04-11T06:19:51.130Z,13.35
2017-04-11T06:20:51.748Z,13.33
2017-04-11T06:21:52.352Z,13.28
2017-04-11T06:22:52.959Z,13.31
2017-04-11T06:23:53.558Z,13.20
2017-04-11T06:24:54.168Z,13.22
2017-04-11T06:25:54.768Z,13.18
2017-04-11T06:26:55.371Z,13.20
2017-04-11T06:27:55.975Z,13.18
2017-04-11T06:28:56.578Z,13.33
2017-04-11T06:29:57.181Z,13.31
2017-04-11T06:30:57.784Z,13.28
2017-04-11T06:31:58.387Z,13.19
2017-04-11T06:32:58.990Z,13.30
2017-04-11T06:33:59.631Z,13.23
2017-04-11T06:35:00.197Z,13.16
2017-04-11T06:36:00.798Z,13.19
2017-04-11T06:37:01.416Z,13.19
2017-04-11T06:38:02.026Z,13.18
2017-04-11T06:39:02.632Z,13.13
2017-04-11T06:40:03.239Z,13.15
2017-04-11T06:41:03.845Z,13.33
2017-04-11T06:42:04.449Z,13.19
2017-04-11T06:43:05.077Z,13.19
2017-04-11T06:44:05.674Z,13.23
2017-04-11T06:45:06.277Z,13.28
2017-04-11T06:46:06.879Z,13.35
2017-04-11T06:47:07.483Z,13.23
2017-04-11T06:48:08.087Z,13.33
2017-04-11T06:49:08.688Z,13.31
2017-04-11T06:50:09.291Z,13.28
2017-04-11T06:51:09.900Z,13.19
2017-04-11T06:52:10.502Z,13.30
2017-04-11T06:53:11.104Z,13.41
2017-04-11T06:54:11.724Z,13.33
2017-04-11T06:55:12.333Z,13.37
2017-04-11T06:56:12.934Z,13.37
2017-04-11T06:57:13.552Z,13.38
2017-04-11T06:58:14.155Z,13.35
2017-04-11T06:59:14.760Z,13.39
2017-04-11T07:00:15.363Z,13.46
2017-04-11T07:01:15.974Z,13.62
2017-04-11T07:02:16.583Z,13.60
2017-04-11T07:03:17.186Z,13.70
2017-04-11T07:04:17.789Z,13.83
2017-04-11T07:05:18.392Z,14.00
2017-04-11T07:06:19.004Z,14.04
2017-04-11T07:07:19.604Z,14.11
2017-04-11T07:08:20.212Z,14.22
2017-04-11T07:09:20.835Z,14.32
2017-04-11T07:10:21.437Z,14.33
2017-04-11T07:11:22.050Z,14.41
2017-04-11T07:12:22.669Z,14.48
2017-04-11T07:13:23.276Z,14.63
2017-04-11T07:14:23.885Z,14.62
2017-04-11T07:15:24.488Z,14.69
2017-04-11T07:16:25.093Z,14.73
2017-04-11T07:17:25.704Z,14.78
2017-04-11T07:18:26.306Z,14.86
2017-04-11T07:19:26.913Z,15.03
2017-04-11T07:20:27.526Z,14.99
2017-04-11T07:21:28.134Z,15.15
2017-04-11T07:22:28.737Z,15.14
2017-04-11T07:23:29.347Z,15.15
2017-04-11T07:24:29.965Z,15.17
2017-04-11T07:25:30.572Z,15.18
2017-04-11T07:26:31.178Z,15.28
2017-04-11T07:27:31.785Z,15.40
2017-04-11T07:28:32.396Z,15.40
2017-04-11T07:29:33.000Z,15.31
2017-04-11T07:30:33.606Z,15.42
2017-04-11T07:31:34.214Z,15.42
2017-04-11T07:32:34.818Z,15.37
2017-04-11T07:33:35.434Z,15.47
2017-04-11T07:34:36.044Z,15.55
2017-04-11T07:35:36.654Z,15.80
2017-04-11T07:36:37.259Z,15.97
2017-04-11T07:37:37.867Z,16.08
2017-04-11T07:38:38.483Z,16.04
2017-04-11T07:39:39.083Z,16.05
2017-04-11T07:40:39.693Z,15.97
2017-04-11T07:41:40.321Z,15.84
2017-04-11T07:42:40.934Z,15.82
2017-04-11T07:43:41.541Z,15.86
2017-04-11T07:44:42.150Z,16.02
2017-04-11T07:45:42.765Z,16.31
2017-04-11T07:46:43.369Z,16.53
2017-04-11T07:47:43.993Z,16.81
2017-04-11T07:48:44.627Z,16.99
2017-04-11T07:49:45.233Z,17.33
2017-04-11T07:50:45.843Z,17.68
2017-04-11T07:51:46.459Z,18.04
2017-04-11T07:52:47.073Z,18.47
2017-04-11T07:53:47.700Z,18.68
2017-04-11T07:54:48.309Z,18.88
2017-04-11T07:55:48.922Z,18.86
2017-04-11T07:56:49.535Z,18.77
2017-04-11T07:57:50.144Z,18.68
2017-04-11T07:58:50.755Z,18.56
2017-04-11T07:59:51.367Z,18.40
2017-04-11T08:00:51.992Z,18.35
2017-04-11T08:01:52.601Z,18.38
2017-04-11T08:02:53.213Z,18.50
2017-04-11T08:03:53.824Z,18.44
2017-04-11T08:04:54.449Z,18.52
2017-04-11T08:05:55.059Z,18.55
2017-04-11T08:06:55.669Z,18.62
2017-04-11T08:07:56.281Z,18.74
2017-04-11T08:08:56.891Z,18.89
2017-04-11T08:09:57.500Z,18.68
2017-04-11T08:10:58.111Z,18.68
2017-04-11T08:11:58.721Z,18.70
2017-04-11T08:12:59.334Z,18.92
2017-04-11T08:13:59.952Z,19.04
2017-04-11T08:15:00.566Z,19.34
2017-04-11T08:16:01.174Z,19.59
2017-04-11T08:17:01.786Z,19.81
2017-04-11T08:18:02.399Z,20.00
2017-04-11T08:19:03.011Z,20.28
2017-04-11T08:20:03.626Z,20.50
2017-04-11T08:21:04.251Z,20.44
2017-04-11T08:22:04.864Z,20.32
2017-04-11T08:23:05.477Z,20.25
2017-04-11T08:24:06.092Z,20.03
2017-04-11T08:25:06.707Z,19.86
2017-04-11T08:26:07.316Z,19.70
2017-04-11T08:27:07.928Z,19.69
2017-04-11T08:28:08.540Z,19.56
2017-04-11T08:29:09.164Z,19.67
2017-04-11T08:30:09.769Z,19.62
2017-04-11T08:31:10.377Z,19.77
2017-04-11T08:32:10.989Z,19.81
2017-04-11T08:33:11.598Z,19.66
2017-04-11T08:34:12.210Z,19.63
2017-04-11T08:35:12.836Z,19.44
2017-04-11T08:36:13.454Z,19.27
2017-04-11T08:37:14.062Z,19.18
2017-04-11T08:38:14.688Z,19.29
2017-04-11T08:39:15.357Z,19.52
2017-04-11T08:40:15.986Z,19.81
2017-04-11T08:41:16.597Z,20.09
2017-04-11T08:42:17.209Z,20.16
2017-04-11T08:43:17.834Z,20.24
2017-04-11T08:44:18.445Z,20.13
2017-04-11T08:45:19.063Z,20.10
2017-04-11T08:46:19.673Z,19.96
2017-04-11T08:47:20.284Z,19.96
2017-04-11T08:48:20.894Z,19.92
2017-04-11T08:49:21.512Z,19.99
2017-04-11T08:50:22.119Z,20.00
2017-04-11T08:51:22.740Z,20.07
2017-04-11T08:52:23.349Z,20.09
2017-04-11T08:53:23.968Z,20.09
2017-04-11T08:54:24.575Z,19.91
2017-04-11T08:55:25.186Z,19.84
2017-04-11T08:56:25.798Z,19.81
2017-04-11T08:57:26.410Z,19.84
2017-04-11T08:58:27.021Z,19.86
2017-04-11T08:59:27.633Z,19.95
2017-04-11T09:00:28.244Z,19.86
2017-04-11T09:01:28.855Z,19.88
2017-04-11T09:02:29.465Z,19.95
2017-04-11T09:03:30.091Z,20.13
2017-04-11T09:04:30.708Z,20.24
2017-04-11T09:05:31.317Z,20.44
2017-04-11T09:06:31.930Z,20.58
2017-04-11T09:07:32.544Z,20.44
2017-04-11T09:08:33.154Z,20.29
2017-04-11T09:09:33.765Z,20.19
2017-04-11T09:10:34.377Z,20.16
2017-04-11T09:11:34.997Z,20.07
2017-04-11T09:12:35.610Z,20.09
2017-04-11T09:13:36.221Z,20.28
2017-04-11T09:14:36.836Z,20.72
2017-04-11T09:15:37.448Z,21.24
2017-04-11T09:16:38.061Z,21.80
2017-04-11T09:17:38.680Z,22.41
2017-04-11T09:18:39.307Z,22.85
2017-04-11T09:19:39.926Z,23.05
2017-04-11T09:20:40.561Z,23.23
2017-04-11T09:21:41.190Z,23.32
2017-04-11T09:22:41.806Z,23.61
2017-04-11T09:23:42.427Z,23.91
2017-04-11T09:24:43.040Z,23.93
2017-04-11T09:25:43.653Z,24.10
2017-04-11T09:26:44.276Z,24.32
2017-04-11T09:27:44.894Z,24.58
2017-04-11T09:28:45.506Z,24.98
2017-04-11T09:29:46.123Z,25.13
2017-04-11T09:30:46.742Z,25.38
2017-04-11T09:31:47.357Z,25.55
2017-04-11T09:32:47.983Z,25.54
2017-04-11T09:33:48.597Z,25.78
2017-04-11T09:34:49.212Z,26.13
2017-04-11T09:35:49.829Z,26.40
2017-04-11T09:36:50.448Z,26.74
2017-04-11T09:37:51.067Z,26.93
2017-04-11T09:38:51.687Z,27.26
2017-04-11T09:39:52.322Z,27.52
2017-04-11T09:40:52.956Z,27.89
2017-04-11T09:41:53.583Z,28.19
2017-04-11T09:42:54.207Z,28.26
2017-04-11T09:43:54.830Z,28.49
2017-04-11T09:44:55.449Z,28.63
2017-04-11T09:45:56.067Z,28.47
2017-04-11T09:46:56.685Z,28.19
2017-04-11T09:47:57.306Z,27.82
2017-04-11T09:48:57.924Z,27.29
2017-04-11T09:49:58.545Z,26.71
2017-04-11T09:50:59.165Z,26.13
2017-04-11T09:51:59.790Z,25.98
2017-04-11T09:53:00.405Z,25.81
2017-04-11T09:54:01.023Z,25.54
2017-04-11T09:55:01.640Z,25.28
2017-04-11T09:56:02.260Z,24.89
2017-04-11T09:57:02.885Z,24.61
2017-04-11T09:58:03.514Z,24.33
2017-04-11T09:59:04.140Z,24.13
2017-04-11T10:00:04.760Z,23.99
2017-04-11T10:01:05.374Z,23.77
2017-04-11T10:02:05.990Z,23.68
2017-04-11T10:03:06.623Z,23.43
2017-04-11T10:04:07.238Z,23.41
2017-04-11T10:05:07.853Z,23.39
2017-04-11T10:06:08.473Z,23.34
2017-04-11T10:07:09.086Z,23.24
2017-04-11T10:08:09.717Z,23.06
2017-04-11T10:09:10.331Z,22.75
2017-04-11T10:10:10.947Z,22.41
2017-04-11T10:11:11.567Z,22.02
2017-04-11T10:12:12.183Z,21.67
2017-04-11T10:13:12.794Z,21.36
2017-04-11T10:14:13.412Z,21.18
2017-04-11T10:15:14.020Z,21.05
2017-04-11T10:16:14.654Z,21.00
2017-04-11T10:17:15.265Z,20.87
2017-04-11T10:18:15.878Z,20.69
2017-04-11T10:19:16.491Z,20.75
2017-04-11T10:20:17.120Z,20.77
2017-04-11T10:21:17.733Z,20.72
2017-04-11T10:22:18.353Z,20.92
2017-04-11T10:23:18.977Z,20.88
2017-04-11T10:24:19.591Z,20.93
2017-04-11T10:25:20.212Z,20.90
2017-04-11T10:26:20.816Z,20.88
2017-04-11T10:27:21.428Z,20.88
2017-04-11T10:28:22.043Z,20.84
2017-04-11T10:29:22.653Z,20.87
2017-04-11T10:30:23.275Z,20.85
2017-04-11T10:31:23.881Z,21.03
2017-04-11T10:32:24.492Z,21.02
2017-04-11T10:33:25.105Z,20.99
2017-04-11T10:34:25.715Z,21.03
2017-04-11T10:35:26.327Z,21.03
2017-04-11T10:36:26.940Z,20.99
2017-04-11T10:37:27.566Z,20.88
2017-04-11T10:38:28.184Z,20.90
2017-04-11T10:39:28.794Z,20.85
2017-04-11T10:40:29.405Z,20.82
2017-04-11T10:41:30.015Z,20.78
2017-04-11T10:42:30.626Z,20.67
2017-04-11T10:43:31.237Z,20.62
2017-04-11T10:44:31.849Z,20.52
2017-04-11T10:45:32.461Z,20.58
2017-04-11T10:46:33.073Z,20.60
2017-04-11T10:47:33.683Z,20.56
2017-04-11T10:48:34.293Z,20.50
2017-04-11T10:49:34.907Z,20.40
2017-04-11T10:50:35.517Z,20.40
2017-04-11T10:51:36.134Z,20.21
2017-04-11T10:52:36.741Z,20.14
2017-04-11T10:53:37.352Z,19.96
2017-04-11T10:54:37.962Z,20.02
2017-04-11T10:55:38.572Z,19.88
2017-04-11T10:56:39.189Z,19.81
2017-04-11T10:57:39.796Z,19.99
2017-04-11T10:58:40.405Z,19.95
2017-04-11T10:59:41.015Z,19.92
2017-04-11T11:00:41.630Z,19.92
2017-04-11T11:01:42.236Z,19.89
2017-04-11T11:02:42.847Z,19.81
2017-04-11T11:03:43.463Z,19.64
2017-04-11T11:04:44.069Z,19.51
2017-04-11T11:05:44.693Z,19.34
2017-04-11T11:06:45.291Z,19.33
2017-04-11T11:07:45.901Z,19.36
2017-04-11T11:08:46.512Z,19.54
2017-04-11T11:09:47.122Z,19.51
2017-04-11T11:10:47.737Z,19.52
2017-04-11T11:11:48.343Z,19.59
2017-04-11T11:12:48.959Z,19.62
2017-04-11T11:13:49.568Z,19.56
2017-04-11T11:14:50.177Z,19.51
2017-04-11T11:15:50.787Z,19.41
2017-04-11T11:16:51.404Z,19.41
2017-04-11T11:17:52.010Z,19.59
2017-04-11T11:18:52.619Z,19.55
2017-04-11T11:19:53.229Z,19.54
2017-04-11T11:20:53.854Z,19.63
2017-04-11T11:21:54.483Z,19.81
2017-04-11T11:22:55.103Z,19.86
2017-04-11T11:23:55.718Z,19.89
2017-04-11T11:24:56.326Z,19.88
2017-04-11T11:25:56.935Z,19.99
2017-04-11T11:26:57.544Z,20.02
2017-04-11T11:27:58.161Z,20.07
2017-04-11T11:28:58.810Z,20.19
2017-04-11T11:29:59.379Z,20.21
2017-04-11T11:30:59.988Z,20.07
2017-04-11T11:32:00.599Z,20.06
2017-04-11T11:33:01.214Z,19.92
2017-04-11T11:34:01.823Z,19.77
2017-04-11T11:35:02.442Z,19.70
2017-04-11T11:36:03.042Z,19.64
2017-04-11T11:37:03.651Z,19.74
2017-04-11T11:38:04.261Z,19.69
2017-04-11T11:39:04.877Z,19.71
2017-04-11T11:40:05.485Z,19.64
2017-04-11T11:41:06.097Z,19.70
2017-04-11T11:42:06.712Z,19.77
2017-04-11T11:43:07.324Z,19.79
2017-04-11T11:44:07.930Z,19.86
2017-04-11T11:45:08.544Z,19.88
2017-04-11T11:46:09.152Z,19.79
2017-04-11T11:47:09.765Z,19.91
2017-04-11T11:48:10.389Z,19.88
2017-04-11T11:49:10.999Z,19.77
2017-04-11T11:50:11.609Z,19.82
2017-04-11T11:51:12.218Z,19.88
2017-04-11T11:52:12.827Z,19.82
2017-04-11T11:53:13.436Z,19.82
2017-04-11T11:54:14.046Z,19.79
2017-04-11T11:55:14.657Z,19.77
2017-04-11T11:56:15.266Z,19.64
2017-04-11T11:57:15.880Z,19.62
2017-04-11T11:58:16.494Z,19.67
2017-04-11T11:59:17.100Z,19.69
2017-04-11T12:00:17.710Z,19.66
2017-04-11T12:01:18.335Z,19.66
2017-04-11T12:02:18.959Z,19.55
2017-04-11T12:03:19.569Z,19.56
2017-04-11T12:04:20.184Z,19.59
2017-04-11T12:05:20.797Z,19.52
2017-04-11T12:06:21.403Z,19.52
2017-04-11T12:07:22.011Z,19.56
2017-04-11T12:08:22.634Z,19.62
2017-04-11T12:09:23.244Z,19.56
2017-04-11T12:10:23.857Z,19.51
2017-04-11T12:11:24.464Z,19.56
2017-04-11T12:12:25.072Z,19.56
2017-04-11T12:13:25.690Z,19.64
2017-04-11T12:14:26.302Z,19.62
2017-04-11T12:15:26.912Z,19.56
2017-04-11T12:16:27.520Z,19.67
2017-04-11T12:17:28.137Z,19.58
2017-04-11T12:18:28.740Z,19.64
2017-04-11T12:19:29.349Z,19.62
2017-04-11T12:20:29.965Z,19.73
2017-04-11T12:21:30.573Z,19.76
2017-04-11T12:22:31.196Z,19.66
2017-04-11T12:23:31.812Z,19.66
2017-04-11T12:24:32.424Z,19.64
2017-04-11T12:25:33.048Z,19.70
2017-04-11T12:26:33.659Z,19.79
2017-04-11T12:27:34.268Z,19.76
2017-04-11T12:28:34.877Z,19.81
2017-04-11T12:29:35.487Z,19.85
2017-04-11T12:30:36.100Z,19.92
2017-04-11T12:31:36.706Z,19.88
2017-04-11T12:32:37.315Z,19.91
2017-04-11T12:33:37.923Z,19.91
2017-04-11T12:34:38.531Z,19.94
2017-04-11T12:35:39.142Z,20.02
2017-04-11T12:36:39.754Z,20.03
2017-04-11T12:37:40.361Z,20.00
2017-04-11T12:38:40.971Z,20.04
2017-04-11T12:39:41.579Z,20.02
2017-04-11T12:40:42.196Z,20.03
2017-04-11T12:41:42.805Z,20.06
2017-04-11T12:42:43.430Z,20.09
2017-04-11T12:43:44.038Z,20.09
2017-04-11T12:44:44.649Z,20.06
2017-04-11T12:45:45.257Z,20.11
2017-04-11T12:46:45.867Z,20.02
2017-04-11T12:47:46.496Z,20.03
2017-04-11T12:48:47.107Z,19.99
2017-04-11T12:49:47.713Z,19.96
2017-04-11T12:50:48.321Z,19.96
2017-04-11T12:51:48.929Z,19.89
2017-04-11T12:52:49.540Z,19.84
2017-04-11T12:53:50.148Z,19.70
2017-04-11T12:54:50.758Z,19.55
2017-04-11T12:55:51.367Z,19.56
2017-04-11T12:56:51.999Z,19.39
2017-04-11T12:57:52.605Z,19.33
2017-04-11T12:58:53.217Z,19.31
2017-04-11T12:59:53.820Z,19.15
2017-04-11T13:00:54.429Z,19.07
2017-04-11T13:01:55.043Z,18.98
2017-04-11T13:02:55.668Z,19.00